Time;durP1;ratioP1;P1;durP2;ratioP2;P2;SDS_P1;SDS_P2;PMS_P1;PMS_P2;Temp;Humidity;BMP_temperature;BMP_pressure;BME280_temperature;BME280_humidity;BME280_pressure;Samples;Min_cycle;Max_cycle;Signal;HPM_P1;HPM_P2
2022/08/13 00:02:16;;;;;;;3.85;3.65;;;;;;;20.07;86.15;64073.97;4890610;29;20258;-78
2022/08/13 00:04:50;;;;;;;3.75;3.55;;;;;;;20.05;87.64;64074.47;4892656;29;20402;-81
2022/08/13 00:07:17;;;;;;;4.13;3.85;;;;;;;20.04;89.29;64076.00;4892393;29;20227;-79
2022/08/13 00:09:45;;;;;;;4.15;3.85;;;;;;;19.95;88.45;64060.94;4892514;29;20274;-77
2022/08/13 00:15:09;;;;;;;3.90;3.60;;;;;;;20.03;85.78;64071.84;4894479;29;20214;-78
2022/08/13 00:17:37;;;;;;;6.45;3.83;;;;;;;20.03;86.85;64071.84;4892202;29;20418;-78
2022/08/13 00:20:06;;;;;;;4.57;4.38;;;;;;;20.03;85.95;64069.81;4892044;29;20226;-78
2022/08/13 00:22:33;;;;;;;4.38;3.97;;;;;;;20.11;84.48;64080.72;4893623;29;20555;-77
2022/08/13 00:25:02;;;;;;;4.30;3.97;;;;;;;20.15;84.39;64084.38;4891191;29;20588;-79
2022/08/13 00:27:30;;;;;;;4.13;3.92;;;;;;;20.11;85.16;64078.13;4892694;29;20270;-79
2022/08/13 00:29:57;;;;;;;3.80;3.60;;;;;;;19.90;88.56;64058.28;4893208;29;20482;-77
2022/08/13 00:32:30;;;;;;;3.78;3.60;;;;;;;19.89;89.97;64054.66;4892025;29;20218;-79
2022/08/13 00:35:00;;;;;;;3.47;3.38;;;;;;;19.65;91.17;64035.31;4895411;29;20214;-79
2022/08/13 00:37:28;;;;;;;4.28;4.00;;;;;;;19.52;93.36;64019.69;4898959;29;20246;-79
2022/08/13 00:39:55;;;;;;;3.72;3.53;;;;;;;19.69;91.30;64034.31;4898341;29;20235;-79
2022/08/13 00:42:25;;;;;;;5.40;4.63;;;;;;;19.73;89.86;64035.38;4898063;29;20199;-79
2022/08/13 00:44:53;;;;;;;7.60;4.85;;;;;;;19.79;89.42;64046.81;4898011;29;20250;-78
2022/08/13 00:50:12;;;;;;;4.65;4.35;;;;;;;19.91;88.26;64059.88;4890216;29;20263;-79
2022/08/13 00:52:42;;;;;;;5.82;4.00;;;;;;;19.90;87.73;64063.44;4891129;29;20199;-78
2022/08/13 00:55:13;;;;;;;4.95;4.65;;;;;;;19.94;88.46;64059.88;4893067;29;20274;-78
2022/08/13 00:57:40;;;;;;;4.85;4.50;;;;;;;20.02;87.65;64068.75;4891660;29;20207;-78
2022/08/13 01:00:15;;;;;;;5.70;4.50;;;;;;;20.02;87.84;64065.66;4891677;29;20222;-78
2022/08/13 01:02:45;;;;;;;4.78;4.38;;;;;;;20.01;88.59;64070.28;4892177;29;20412;-78
2022/08/13 01:05:13;;;;;;;4.82;4.63;;;;;;;19.97;87.17;64063.53;4891077;29;20247;-79
2022/08/13 01:07:41;;;;;;;4.43;4.10;;;;;;;19.93;87.06;64061.94;4881933;29;20241;-79
2022/08/13 01:10:10;;;;;;;8.23;4.88;;;;;;;19.92;86.84;64063.47;4891576;29;20219;-78
2022/08/13 01:12:38;;;;;;;4.65;4.28;;;;;;;19.95;87.67;64071.78;4892641;29;20202;-78
2022/08/13 01:15:12;;;;;;;4.25;4.03;;;;;;;19.94;87.23;64060.41;4890319;29;20237;-78
2022/08/13 01:17:40;;;;;;;4.60;4.30;;;;;;;19.96;86.35;64069.72;4873128;29;20349;-78
2022/08/13 01:20:09;;;;;;;4.32;4.13;;;;;;;19.95;86.76;64064.03;4873248;29;20231;-78
2022/08/13 01:22:39;;;;;;;4.35;4.05;;;;;;;19.91;86.92;64059.34;4874450;29;20204;-78
2022/08/13 01:25:08;;;;;;;5.03;4.53;;;;;;;19.94;86.84;64065.06;4881869;29;20234;-79
2022/08/13 01:27:41;;;;;;;4.53;4.32;;;;;;;19.91;87.13;64061.94;4891132;29;20274;-79
2022/08/13 01:30:10;;;;;;;4.88;4.43;;;;;;;19.87;87.10;64052.56;4890799;29;20245;-78
2022/08/13 01:32:38;;;;;;;4.40;4.20;;;;;;;19.91;86.49;64059.88;4891349;29;20203;-78
2022/08/13 01:35:06;;;;;;;4.95;4.63;;;;;;;19.90;86.37;64055.69;4890092;29;20256;-78
2022/08/13 01:37:35;;;;;;;4.85;4.40;;;;;;;19.83;87.38;64051.00;4892600;29;20194;-79
2022/08/13 01:40:05;;;;;;;5.32;4.82;;;;;;;19.85;87.22;64058.25;4890193;29;20246;-79
2022/08/13 01:42:39;;;;;;;4.88;4.57;;;;;;;19.85;88.05;64056.19;4890511;29;20199;-77
2022/08/13 01:45:07;;;;;;;5.07;4.78;;;;;;;19.84;88.57;64057.19;4891318;29;20305;-77
2022/08/13 01:50:31;;;;;;;4.70;4.40;;;;;;;19.81;88.49;64046.84;4889906;29;20221;-78
2022/08/13 01:53:01;;;;;;;5.10;4.70;;;;;;;19.84;88.25;64052.03;4892691;29;20194;-79
2022/08/13 01:55:38;;;;;;;8.32;5.10;;;;;;;19.84;88.31;64052.56;4889879;29;20249;-77
2022/08/13 01:58:08;;;;;;;5.47;4.47;;;;;;;19.87;87.99;64055.69;4893153;29;20198;-78
2022/08/13 02:00:37;;;;;;;4.95;4.10;;;;;;;19.89;87.77;64057.78;4891014;29;20210;-77
2022/08/13 02:03:05;;;;;;;4.55;4.25;;;;;;;19.87;88.80;64055.69;4890330;29;20215;-78
2022/08/13 02:05:36;;;;;;;5.10;4.80;;;;;;;19.74;90.29;64039.03;4891891;29;20217;-77
2022/08/13 02:08:04;;;;;;;4.55;4.30;;;;;;;19.81;89.24;64049.41;4890237;29;20424;-78
2022/08/13 02:10:32;;;;;;;4.90;4.57;;;;;;;19.83;88.94;64051.00;4890614;29;20255;-78
2022/08/13 02:13:01;;;;;;;4.80;4.50;;;;;;;19.86;89.60;64054.66;4892176;29;20194;-78
2022/08/13 02:15:28;;;;;;;5.13;4.50;;;;;;;19.86;89.48;64051.53;4890469;29;20235;-78
2022/08/13 02:17:56;;;;;;;4.57;4.28;;;;;;;19.85;88.54;64048.44;4891214;29;20224;-79
2022/08/13 02:20:23;;;;;;;4.28;3.97;;;;;;;19.83;88.65;64048.91;4890628;29;20206;-78
2022/08/13 02:22:51;;;;;;;4.50;4.20;;;;;;;19.85;89.13;64050.47;4890696;29;20249;-78
2022/08/13 02:25:20;;;;;;;4.90;4.55;;;;;;;19.78;91.86;64048.34;4890965;29;20214;-78
2022/08/13 02:27:55;;;;;;;5.18;4.13;;;;;;;19.74;92.14;64039.56;4890313;29;20246;-79
2022/08/13 02:30:24;;;;;;;4.68;4.38;;;;;;;19.78;91.87;64051.47;4890702;29;20221;-78
2022/08/13 02:32:51;;;;;;;4.75;4.35;;;;;;;19.81;91.19;64046.31;4891222;29;20202;-78
2022/08/13 02:35:20;;;;;;;4.95;4.60;;;;;;;19.83;90.81;64051.50;4890649;29;20218;-78
2022/08/13 02:37:47;;;;;;;4.15;3.92;;;;;;;19.90;90.48;64060.88;4893984;29;20273;-79
2022/08/13 02:43:02;;;;;;;4.90;4.47;;;;;;;19.81;87.55;64046.84;4893898;29;20587;-77
2022/08/13 02:45:30;;;;;;;4.78;4.47;;;;;;;19.81;87.70;64046.31;4893438;29;20210;-79
2022/08/13 02:47:58;;;;;;;5.45;4.45;;;;;;;19.84;88.27;64052.03;4895707;29;20279;-78
2022/08/13 02:50:27;;;;;;;4.10;3.90;;;;;;;19.80;87.73;64045.28;4893514;29;20203;-79
2022/08/13 02:52:55;;;;;;;5.03;4.50;;;;;;;19.81;88.05;64046.84;4894241;29;20206;-80
2022/08/13 02:55:24;;;;;;;4.07;3.88;;;;;;;19.85;88.57;64053.59;4894280;29;20249;-78
2022/08/13 02:57:52;;;;;;;4.72;4.40;;;;;;;19.87;88.31;64055.16;4893497;29;20421;-80
2022/08/13 03:00:21;;;;;;;4.10;3.88;;;;;;;19.87;90.02;64053.09;4895973;29;20278;-79
2022/08/13 03:02:49;;;;;;;4.60;4.20;;;;;;;19.86;88.95;64054.66;4896579;29;20203;-79
2022/08/13 03:05:19;;;;;;;3.90;3.70;;;;;;;19.80;89.29;64050.44;4893730;29;20241;-78
2022/08/13 03:07:48;;;;;;;4.65;4.35;;;;;;;19.79;89.11;64047.34;4881494;29;20204;-78
2022/08/13 03:10:18;;;;;;;5.15;4.40;;;;;;;19.75;88.48;64040.06;4877466;29;20237;-77
2022/08/13 03:12:48;;;;;;;4.00;3.80;;;;;;;19.71;88.44;64038.47;4875038;29;20257;-79
2022/08/13 03:15:19;;;;;;;4.28;3.97;;;;;;;19.72;88.82;64036.94;4875747;29;20220;-79
2022/08/13 03:17:48;;;;;;;4.38;4.18;;;;;;;19.69;88.19;64036.91;4876869;29;20200;-80
2022/08/13 03:20:16;;;;;;;4.88;4.55;;;;;;;19.70;87.92;64037.44;4874927;29;20600;-79
2022/08/13 03:22:51;;;;;;;4.85;4.55;;;;;;;19.67;90.57;64034.31;4874830;29;20210;-78
2022/08/13 03:25:19;;;;;;;4.50;4.10;;;;;;;19.56;91.67;64023.34;4873963;29;20219;-78
2022/08/13 03:27:46;;;;;;;3.83;3.63;;;;;;;19.61;92.17;64028.03;4874459;29;20207;-78
2022/08/13 03:30:14;;;;;;;4.70;4.35;;;;;;;19.61;92.12;64028.56;4875310;29;20294;-78
2022/08/13 03:32:43;;;;;;;4.10;3.90;;;;;;;19.56;93.70;64020.75;4874018;29;20246;-79
2022/08/13 03:35:14;;;;;;;4.75;4.45;;;;;;;19.53;93.95;64018.16;4875483;29;20248;-81
2022/08/13 03:37:44;;;;;;;4.28;4.07;;;;;;;19.50;95.20;64017.59;4876907;29;20199;-79
2022/08/13 03:40:12;;;;;;;5.18;4.75;;;;;;;19.55;94.93;64025.41;4875605;29;20227;-80
2022/08/13 03:42:42;;;;;;;4.40;4.10;;;;;;;19.55;94.28;64020.25;4876703;29;20208;-79
2022/08/13 03:45:10;;;;;;;4.95;4.65;;;;;;;19.63;94.06;64027.53;4874002;29;20412;-77
2022/08/13 03:47:38;;;;;;;4.97;4.60;;;;;;;19.63;92.94;64027.53;4873939;29;20210;-78
2022/08/13 03:50:08;;;;;;;5.32;5.03;;;;;;;19.62;94.13;64029.63;4875088;29;20239;-78
2022/08/13 03:52:37;;;;;;;7.25;4.50;;;;;;;19.68;93.88;64037.91;4873638;29;20298;-80
2022/08/13 03:55:08;;;;;;;5.05;4.65;;;;;;;19.68;92.21;64032.75;4874423;29;20238;-77
2022/08/13 03:57:39;;;;;;;4.80;4.40;;;;;;;19.72;92.05;64040.03;4873347;29;20210;-78
2022/08/13 04:00:10;;;;;;;5.03;4.55;;;;;;;19.75;91.83;64040.06;4874344;29;20230;-78
2022/08/13 04:02:40;;;;;;;6.45;4.60;;;;;;;19.69;93.28;64036.41;4873844;29;20268;-81
2022/08/13 04:05:11;;;;;;;4.78;4.47;;;;;;;19.75;93.91;64042.63;4874916;29;20224;-82
2022/08/13 04:07:40;;;;;;;6.03;4.78;;;;;;;19.80;93.34;64047.84;4887337;29;20234;-77
2022/08/13 04:10:09;;;;;;;4.80;4.50;;;;;;;19.83;93.01;64053.59;4894765;29;20536;-78
2022/08/13 04:12:37;;;;;;;4.78;4.47;;;;;;;19.90;93.17;64055.69;4893210;29;20279;-77
2022/08/13 04:15:06;;;;;;;4.55;4.15;;;;;;;19.96;92.51;64061.97;4893842;29;20282;-80
2022/08/13 04:17:36;;;;;;;4.88;4.32;;;;;;;20.00;91.41;64071.31;4894880;29;20206;-79
2022/08/13 04:20:05;;;;;;;4.30;4.10;;;;;;;20.05;92.40;64076.53;4895178;29;20259;-78
2022/08/13 04:22:33;;;;;;;4.95;4.28;;;;;;;20.11;91.89;64077.63;4894811;29;20202;-80
2022/08/13 04:25:04;;;;;;;5.10;4.60;;;;;;;20.13;91.23;64088.00;4893266;29;20258;-79
2022/08/13 04:27:32;;;;;;;4.47;4.18;;;;;;;20.23;90.32;64090.69;4895214;29;20203;-78
2022/08/13 04:29:59;;;;;;;5.03;4.72;;;;;;;20.27;89.79;64097.44;4893189;29;20219;-78
2022/08/13 04:32:27;;;;;;;4.30;4.05;;;;;;;20.32;89.66;64102.66;4894457;29;20248;-79
2022/08/13 04:34:54;;;;;;;4.22;4.00;;;;;;;20.34;89.97;64102.16;4895041;29;20227;-78
2022/08/13 04:37:22;;;;;;;4.32;4.10;;;;;;;20.30;92.95;64103.16;4895125;29;20210;-79
2022/08/13 04:39:51;;;;;;;5.00;4.60;;;;;;;20.34;92.12;64104.22;4894449;29;20506;-80
2022/08/13 04:42:19;;;;;;;5.20;4.60;;;;;;;20.43;91.15;64111.53;4894552;29;20210;-78
2022/08/13 04:44:48;;;;;;;5.60;4.90;;;;;;;20.43;91.55;64113.63;4894489;29;20251;-82
2022/08/13 04:47:15;;;;;;;5.60;5.20;;;;;;;20.44;88.88;64112.06;4893666;29;20187;-77
2022/08/13 04:49:42;;;;;;;8.27;5.13;;;;;;;20.40;89.37;64113.06;4893843;29;20222;-78
2022/08/13 04:52:09;;;;;;;4.35;4.15;;;;;;;20.35;93.80;64105.25;4894584;29;20238;-80
2022/08/13 04:54:36;;;;;;;5.55;5.05;;;;;;;20.40;94.40;64110.47;4892244;29;20241;-79
2022/08/13 04:57:03;;;;;;;6.00;5.50;;;;;;;20.46;94.20;64114.16;4894232;29;20199;-79
2022/08/13 04:59:32;;;;;;;6.25;5.55;;;;;;;20.44;90.94;64110.00;4890897;29;20254;-79
2022/08/13 05:01:59;;;;;;;4.80;4.40;;;;;;;20.44;93.51;64117.25;4893152;29;20203;-78
2022/08/13 05:04:27;;;;;;;5.55;5.18;;;;;;;20.47;93.75;64118.31;4891031;29;20222;-78
2022/08/13 05:06:55;;;;;;;6.47;4.35;;;;;;;20.50;93.75;64118.84;4893292;29;20202;-79
2022/08/13 05:09:22;;;;;;;5.05;4.75;;;;;;;20.50;94.88;64118.34;4892401;29;20254;-81
2022/08/13 05:11:49;;;;;;;5.13;4.72;;;;;;;20.41;97.81;64111.53;4891638;29;20536;-79
2022/08/13 05:14:16;;;;;;;5.45;5.05;;;;;;;20.40;95.81;64113.59;4891016;29;20230;-79
2022/08/13 05:16:44;;;;;;;5.93;5.53;;;;;;;20.37;95.63;64102.72;4890884;29;20423;-77
2022/08/13 05:19:11;;;;;;;6.05;5.45;;;;;;;20.18;95.52;64090.63;4890734;29;20223;-77
2022/08/13 05:21:39;;;;;;;6.88;6.32;;;;;;;20.02;96.44;64070.81;4892386;29;20277;-80
2022/08/13 05:24:06;;;;;;;7.35;6.32;;;;;;;20.18;97.44;64082.34;4890872;29;20539;-78
2022/08/13 05:26:33;;;;;;;6.38;5.85;;;;;;;20.11;95.89;64083.31;4891772;29;20259;-79
2022/08/13 05:29:04;;;;;;;6.90;6.30;;;;;;;19.86;98.54;64049.47;4891928;29;20245;-77
2022/08/13 05:31:31;;;;;;;7.38;6.68;;;;;;;19.74;100.00;64039.03;4890757;29;20454;-79
2022/08/13 05:34:03;;;;;;;7.88;6.97;;;;;;;20.06;99.02;64077.56;4890439;29;20415;-78
2022/08/13 05:36:31;;;;;;;7.80;6.97;;;;;;;20.31;97.53;64098.50;4892670;29;20202;-78
2022/08/13 05:38:58;;;;;;;8.18;7.25;;;;;;;20.43;95.93;64111.03;4891575;29;20238;-77
2022/08/13 05:41:27;;;;;;;8.20;7.60;;;;;;;20.57;95.11;64128.25;4891110;29;20443;-78
2022/08/13 05:43:55;;;;;;;9.60;7.97;;;;;;;20.75;93.74;64144.44;4892568;29;20223;-77
2022/08/13 05:46:24;;;;;;;8.52;7.70;;;;;;;20.84;92.33;64156.41;4890737;29;20206;-79
2022/08/13 05:49:00;;;;;;;8.40;7.43;;;;;;;20.22;97.03;64089.13;4892279;29;20274;-79
2022/08/13 05:51:31;;;;;;;9.68;7.25;;;;;;;20.43;96.07;64111.03;4892212;29;20225;-78
2022/08/13 05:53:59;;;;;;;8.38;7.60;;;;;;;20.49;95.28;64120.41;4890617;29;20223;-80
2022/08/13 05:56:27;;;;;;;7.50;6.88;;;;;;;20.68;93.89;64142.81;4891961;29;20214;-79
2022/08/13 05:58:55;;;;;;;9.10;7.60;;;;;;;20.52;95.53;64123.00;4891606;29;20222;-77
2022/08/13 06:04:18;;;;;;;7.93;6.90;;;;;;;20.89;92.51;64161.13;4893169;29;20220;-80
2022/08/13 06:06:48;;;;;;;8.10;7.32;;;;;;;20.97;91.51;64167.41;4891303;29;20436;-78
2022/08/13 06:09:15;;;;;;;9.48;7.97;;;;;;;20.60;91.38;64131.38;4889917;29;20281;-76
2022/08/13 06:11:42;;;;;;;9.35;7.15;;;;;;;20.14;94.11;64080.75;4894575;29;20523;-78
2022/08/13 06:14:17;;;;;;;8.10;7.40;;;;;;;19.99;96.16;64070.78;4896270;29;20264;-79
2022/08/13 06:16:45;;;;;;;15.30;7.50;;;;;;;20.24;95.74;64094.31;4896341;29;20203;-79
2022/08/13 06:19:12;;;;;;;10.10;8.52;;;;;;;20.21;94.69;64088.59;4895014;29;20285;-77
2022/08/13 06:21:41;;;;;;;10.73;7.53;;;;;;;20.35;94.38;64107.84;4895808;29;20211;-79
2022/08/13 06:24:12;;;;;;;9.60;8.35;;;;;;;20.33;93.28;64103.69;4896388;29;20558;-78
2022/08/13 06:26:39;;;;;;;8.27;7.00;;;;;;;20.50;92.88;64118.84;4895977;29;20203;-79
2022/08/13 06:29:08;;;;;;;8.00;7.15;;;;;;;20.50;90.97;64121.44;4895532;29;20230;-77
2022/08/13 06:31:38;;;;;;;7.95;7.25;;;;;;;20.42;93.36;64115.16;4895266;29;20266;-79
2022/08/13 06:34:08;;;;;;;7.90;7.20;;;;;;;20.69;90.98;64140.78;4895122;29;20595;-77
2022/08/13 06:36:37;;;;;;;8.77;7.80;;;;;;;20.69;90.27;64140.78;4894663;29;20203;-78
2022/08/13 06:39:06;;;;;;;8.90;7.22;;;;;;;20.80;89.70;64152.25;4895269;29;20267;-78
2022/08/13 06:41:36;;;;;;;9.07;8.18;;;;;;;20.96;87.13;64166.38;4894976;29;20230;-78
2022/08/13 06:44:05;;;;;;;8.75;7.90;;;;;;;21.08;87.02;64183.56;4894942;29;20217;-79
2022/08/13 06:46:32;;;;;;;10.38;8.10;;;;;;;21.38;84.41;64214.91;4895891;29;20416;-78
2022/08/13 06:49:01;;;;;;;16.85;7.40;;;;;;;21.61;80.52;64233.75;4894690;29;20571;-78
2022/08/13 06:51:29;;;;;;;7.40;6.57;;;;;;;21.20;83.18;64190.91;4893725;29;20223;-78
2022/08/13 06:53:56;;;;;;;8.82;7.10;;;;;;;21.46;82.26;64216.00;4895710;29;20504;-78
2022/08/13 06:56:26;;;;;;;10.50;7.15;;;;;;;21.78;78.98;64256.69;4895196;29;20246;-80
2022/08/13 06:58:58;;;;;;;7.10;6.20;;;;;;;21.79;77.48;64250.50;4895232;29;20279;-78
2022/08/13 07:01:27;;;;;;;7.88;7.18;;;;;;;21.85;77.36;64255.72;4894014;29;20203;-77
2022/08/13 07:03:55;;;;;;;7.63;6.93;;;;;;;21.97;77.40;64270.84;4894483;29;20226;-78
2022/08/13 07:06:24;;;;;;;9.98;7.00;;;;;;;22.27;76.11;64307.38;4894701;29;20266;-77
2022/08/13 07:08:54;;;;;;;9.15;6.88;;;;;;;22.37;74.46;64310.59;4896465;29;20223;-78
2022/08/13 07:11:23;;;;;;;10.10;7.50;;;;;;;22.50;74.73;64329.34;4894851;29;20198;-79
2022/08/13 07:13:52;;;;;;;8.35;7.60;;;;;;;22.44;75.42;64328.28;4894443;29;20268;-79
2022/08/13 07:16:23;;;;;;;10.32;8.00;;;;;;;22.33;75.25;64309.00;4894989;29;20202;-81
2022/08/13 07:18:52;;;;;;;13.10;8.10;;;;;;;22.45;75.73;64323.63;4894959;29;20276;-78
2022/08/13 07:21:21;;;;;;;11.05;7.78;;;;;;;22.60;74.27;64339.84;4895398;29;20203;-79
2022/08/13 07:23:49;;;;;;;8.30;7.55;;;;;;;22.65;74.82;64344.53;4895417;29;20227;-76
2022/08/13 07:26:18;;;;;;;9.25;8.02;;;;;;;22.39;75.36;64317.34;4895765;29;20250;-78
2022/08/13 07:28:47;;;;;;;8.40;7.60;;;;;;;22.28;74.86;64303.78;4893739;29;20226;-78
2022/08/13 07:31:15;;;;;;;10.82;8.13;;;;;;;22.18;77.46;64293.31;4895701;29;20202;-78
2022/08/13 07:33:51;;;;;;;10.85;7.20;;;;;;;22.37;76.40;64315.78;4894262;29;20302;-80
2022/08/13 07:36:20;;;;;;;8.98;8.23;;;;;;;22.68;74.79;64348.19;4895362;29;20214;-78
2022/08/13 07:38:49;;;;;;;11.60;8.65;;;;;;;22.82;72.67;64362.31;4894586;29;20227;-78
2022/08/13 07:41:17;;;;;;;8.25;7.47;;;;;;;22.90;72.91;64368.06;4894317;29;20384;-79
2022/08/13 07:43:46;;;;;;;9.18;8.30;;;;;;;22.75;73.74;64352.41;4894951;29;20242;-79
2022/08/13 07:46:15;;;;;;;9.88;8.88;;;;;;;22.65;75.78;64347.13;4893467;29;20281;-80
2022/08/13 07:48:49;;;;;;;12.63;9.63;;;;;;;22.55;74.88;64337.22;4893070;29;20286;-76
2022/08/13 07:51:20;;;;;;;9.80;8.90;;;;;;;22.96;73.11;64379.56;4896845;29;20259;-78
2022/08/13 07:53:48;;;;;;;10.93;8.55;;;;;;;23.20;71.90;64402.06;4893782;29;20240;-79
2022/08/13 07:56:21;;;;;;;12.38;10.05;;;;;;;23.39;68.83;64427.16;4894422;29;20202;-78
2022/08/13 07:58:48;;;;;;;10.68;9.25;;;;;;;23.45;69.56;64425.13;4898814;29;20229;-78
2022/08/13 08:01:15;;;;;;;11.88;8.02;;;;;;;23.51;71.59;64426.19;4895525;29;20202;-80
2022/08/13 08:03:47;;;;;;;10.65;8.63;;;;;;;23.89;68.20;64471.16;4895250;29;20223;-78
2022/08/13 08:06:18;;;;;;;8.65;7.95;;;;;;;23.56;68.12;64441.81;4895442;29;20381;-81
2022/08/13 08:08:47;;;;;;;9.10;8.18;;;;;;;23.23;71.42;64407.28;4895626;29;20289;-79
2022/08/13 08:14:01;;;;;;;9.55;8.25;;;;;;;23.61;68.15;64442.38;4893822;29;20261;-78
2022/08/13 08:16:30;;;;;;;8.45;7.72;;;;;;;23.83;67.12;64468.00;4893143;29;20463;-80
2022/08/13 08:19:00;;;;;;;11.18;8.75;;;;;;;24.00;66.45;64482.69;4892774;29;20291;-78
2022/08/13 08:21:28;;;;;;;11.32;8.45;;;;;;;24.22;64.92;64505.72;4895675;29;20203;-77
2022/08/13 08:23:59;;;;;;;10.18;9.10;;;;;;;23.53;67.21;64436.59;4894532;29;20261;-79
2022/08/13 08:26:28;;;;;;;11.60;8.93;;;;;;;23.23;69.43;64402.09;4895130;29;20413;-78
2022/08/13 08:28:56;;;;;;;10.13;9.23;;;;;;;23.27;70.93;64409.38;4892991;29;20238;-79
2022/08/13 08:31:25;;;;;;;14.70;9.70;;;;;;;23.50;68.16;64430.88;4893425;29;20209;-79
2022/08/13 08:33:56;;;;;;;9.15;7.80;;;;;;;23.65;68.52;64448.63;4894072;29;20282;-78
2022/08/13 08:36:25;;;;;;;15.55;9.05;;;;;;;23.44;68.02;64429.78;4893947;29;20199;-78
2022/08/13 08:44:29;;;;;;;9.73;8.65;;;;;;;23.50;69.04;64435.53;4892763;29;20567;-79
2022/08/13 08:46:57;;;;;;;9.45;8.55;;;;;;;23.14;69.07;64397.88;4892435;29;20202;-77
2022/08/13 08:49:25;;;;;;;9.45;8.55;;;;;;;23.06;70.73;64387.41;4891952;29;20278;-79
2022/08/13 08:51:55;;;;;;;9.95;9.05;;;;;;;23.28;69.80;64409.94;4892819;29;20226;-79
2022/08/13 08:54:23;;;;;;;9.80;8.40;;;;;;;23.12;70.25;64396.31;4893011;29;20297;-78
2022/08/13 08:56:54;;;;;;;9.52;8.35;;;;;;;23.19;69.82;64403.09;4891804;29;20522;-80
2022/08/13 08:59:21;;;;;;;10.10;9.13;;;;;;;23.10;69.97;64393.69;4891795;29;20226;-78
2022/08/13 09:01:51;;;;;;;9.20;8.30;;;;;;;23.34;71.04;64416.19;4892590;29;20202;-78
2022/08/13 09:04:20;;;;;;;14.60;9.55;;;;;;;23.01;70.94;64384.25;4892222;29;20226;-79
2022/08/13 09:06:51;;;;;;;12.25;9.10;;;;;;;22.94;71.43;64377.47;4891725;29;20266;-78
2022/08/13 09:09:21;;;;;;;12.88;9.40;;;;;;;22.93;71.62;64368.63;4892136;29;20226;-78
2022/08/13 09:11:49;;;;;;;9.38;8.52;;;;;;;23.04;72.81;64382.22;4892145;29;20241;-78
2022/08/13 09:14:18;;;;;;;10.07;9.00;;;;;;;23.03;71.97;64386.34;4892025;29;20286;-76
2022/08/13 09:16:46;;;;;;;9.35;8.38;;;;;;;22.90;72.97;64370.69;4891345;29;20235;-78
2022/08/13 09:19:14;;;;;;;8.80;8.00;;;;;;;22.90;73.03;64373.81;4892501;29;20282;-76
2022/08/13 09:21:45;;;;;;;9.85;8.88;;;;;;;22.82;74.17;64362.84;4891430;29;20278;-78
2022/08/13 09:24:14;;;;;;;11.15;9.65;;;;;;;22.74;72.75;64351.38;4891031;29;20233;-77
2022/08/13 09:26:45;;;;;;;11.15;10.13;;;;;;;22.33;76.59;64311.06;4893402;29;20230;-77
2022/08/13 09:29:14;;;;;;;12.05;9.25;;;;;;;22.85;72.81;64365.44;4892399;29;20418;-79
2022/08/13 09:31:43;;;;;;;13.52;9.27;;;;;;;22.44;75.11;64320.50;4890777;29;20378;-76
2022/08/13 09:34:10;;;;;;;12.05;9.63;;;;;;;21.86;78.94;64262.47;4890278;29;20298;-77
2022/08/13 09:36:38;;;;;;;16.45;11.18;;;;;;;22.03;80.19;64275.06;4891214;29;20202;-79
2022/08/13 09:39:06;;;;;;;10.85;9.75;;;;;;;22.47;78.12;64323.09;4892824;29;20222;-79
2022/08/13 09:41:38;;;;;;;9.40;8.48;;;;;;;22.76;76.75;64359.16;4892354;29;20266;-78
2022/08/13 09:44:07;;;;;;;10.80;9.70;;;;;;;22.98;74.58;64381.13;4890538;29;20226;-79
2022/08/13 09:46:35;;;;;;;13.02;9.55;;;;;;;23.17;73.91;64395.81;4892164;29;20215;-79
2022/08/13 09:49:08;;;;;;;17.98;11.45;;;;;;;23.17;73.33;64398.41;4890624;29;20253;-77
2022/08/13 09:51:35;;;;;;;16.30;13.20;;;;;;;23.15;73.92;64394.22;4894795;29;20214;-77
2022/08/13 09:54:03;;;;;;;13.85;10.43;;;;;;;23.15;74.29;64393.69;4893535;29;20376;-79
2022/08/13 09:56:30;;;;;;;10.50;9.50;;;;;;;23.11;74.26;64392.66;4891130;29;20380;-78
2022/08/13 09:58:57;;;;;;;12.30;10.55;;;;;;;23.10;72.99;64389.00;4892444;29;20222;-78
2022/08/13 10:01:25;;;;;;;10.05;9.13;;;;;;;23.00;74.72;64381.16;4891089;29;20217;-78
2022/08/13 10:03:52;;;;;;;13.82;9.15;;;;;;;22.80;76.48;64360.22;4892072;29;20219;-77
2022/08/13 10:06:19;;;;;;;12.02;10.10;;;;;;;22.84;76.94;64364.41;4892675;29;20203;-79
2022/08/13 10:08:47;;;;;;;9.95;9.05;;;;;;;22.53;79.98;64332.50;4890184;29;20283;-76
2022/08/13 10:11:15;;;;;;;10.90;9.80;;;;;;;22.54;81.09;64333.56;4891245;29;20233;-79
2022/08/13 10:13:42;;;;;;;11.68;9.95;;;;;;;22.53;82.60;64329.38;4891077;29;20469;-78
2022/08/13 10:16:11;;;;;;;10.88;9.77;;;;;;;22.11;88.12;64288.06;4891485;29;20203;-76
2022/08/13 10:18:41;;;;;;;13.18;10.30;;;;;;;21.79;94.59;64255.66;4892031;29;20302;-76
2022/08/13 10:21:09;;;;;;;13.93;11.48;;;;;;;21.31;100.00;64205.00;4892193;29;20227;-79
2022/08/13 10:23:36;;;;;;;12.85;11.52;;;;;;;21.54;100.00;64231.59;4890453;29;20214;-78
2022/08/13 10:26:04;;;;;;;13.10;11.77;;;;;;;21.45;100.00;64220.13;4891608;29;20210;-76
2022/08/13 10:28:34;;;;;;;14.82;12.25;;;;;;;21.35;100.00;64203.97;4891414;29;20246;-78
2022/08/13 10:31:02;;;;;;;15.10;12.13;;;;;;;21.54;100.00;64229.00;4890954;29;20262;-78
2022/08/13 10:33:31;;;;;;;11.73;9.77;;;;;;;21.77;100.00;64256.19;4893875;29;20262;-78
2022/08/13 10:36:00;;;;;;;9.27;8.40;;;;;;;22.06;98.06;64282.84;4891368;29;20203;-79
2022/08/13 10:38:33;;;;;;;10.30;9.35;;;;;;;22.15;95.14;64294.84;4891237;29;20246;-78
2022/08/13 10:41:01;;;;;;;9.82;8.25;;;;;;;21.98;94.43;64277.63;4891327;29;20207;-78
2022/08/13 10:43:31;;;;;;;9.55;8.50;;;;;;;21.65;96.61;64243.63;4891343;29;20302;-79
2022/08/13 10:45:59;;;;;;;8.82;8.00;;;;;;;22.06;96.12;64278.19;4890474;29;20207;-79
2022/08/13 10:48:27;;;;;;;9.00;8.25;;;;;;;22.39;90.24;64317.88;4894765;29;20238;-79
2022/08/13 10:50:55;;;;;;;8.75;8.02;;;;;;;22.80;89.40;64363.34;4890483;29;20535;-78
2022/08/13 10:56:10;;;;;;;8.68;7.78;;;;;;;23.33;85.68;64415.66;4892446;29;20228;-78
2022/08/13 10:58:37;;;;;;;9.15;8.30;;;;;;;23.27;85.46;64411.47;4894978;29;20222;-79
2022/08/13 11:01:04;;;;;;;9.25;8.38;;;;;;;23.11;86.42;64392.66;4893843;29;20207;-77
2022/08/13 11:03:32;;;;;;;9.75;8.85;;;;;;;23.02;87.85;64385.81;4895465;29;20261;-79
2022/08/13 11:06:00;;;;;;;8.23;7.57;;;;;;;22.86;83.49;64363.91;4894827;29;20211;-78
2022/08/13 11:08:31;;;;;;;7.80;7.15;;;;;;;22.64;87.00;64338.81;4893955;29;20250;-79
2022/08/13 11:10:58;;;;;;;8.90;8.07;;;;;;;22.72;89.85;64347.19;4894581;29;20203;-79
2022/08/13 11:13:25;;;;;;;8.93;8.15;;;;;;;22.62;89.21;64341.91;4893195;29;20428;-78
2022/08/13 11:15:52;;;;;;;8.95;7.90;;;;;;;22.79;89.32;64356.59;4895700;29;20199;-79
2022/08/13 11:18:20;;;;;;;8.90;8.02;;;;;;;22.52;91.06;64331.44;4893499;29;20450;-78
2022/08/13 11:23:30;;;;;;;9.23;8.38;;;;;;;22.23;95.36;64298.00;4894634;29;20253;-77
2022/08/13 11:25:57;;;;;;;9.75;8.85;;;;;;;21.85;98.80;64261.44;4892918;29;20199;-78
2022/08/13 11:28:24;;;;;;;7.78;7.10;;;;;;;21.66;97.80;64247.25;4895195;29;20239;-77
2022/08/13 11:30:54;;;;;;;8.13;7.40;;;;;;;21.51;97.92;64223.81;4893119;29;20270;-79
2022/08/13 11:33:23;;;;;;;8.85;7.43;;;;;;;21.44;97.03;64218.56;4893597;29;20234;-79
2022/08/13 11:35:51;;;;;;;8.40;7.70;;;;;;;21.13;100.00;64186.19;4895956;29;20206;-78
2022/08/13 11:38:21;;;;;;;7.88;7.10;;;;;;;21.22;100.00;64196.13;4894627;29;20222;-79
2022/08/13 11:40:51;;;;;;;7.82;7.13;;;;;;;21.40;98.86;64212.31;4893465;29;20202;-78
2022/08/13 11:43:18;;;;;;;8.45;7.75;;;;;;;21.34;97.47;64208.66;4893445;29;20286;-78
2022/08/13 11:45:47;;;;;;;8.60;7.93;;;;;;;21.27;100.00;64198.22;4894567;29;20217;-76
2022/08/13 11:48:15;;;;;;;8.77;8.07;;;;;;;21.36;100.00;64210.22;4893399;29;20203;-79
2022/08/13 11:50:42;;;;;;;10.15;9.10;;;;;;;21.02;100.00;64180.41;4894507;29;20258;-79
2022/08/13 11:53:09;;;;;;;12.80;10.15;;;;;;;20.95;100.00;64164.78;4895280;29;20199;-80
2022/08/13 11:55:36;;;;;;;14.55;11.75;;;;;;;21.01;100.00;64173.66;4894164;29;20207;-78
2022/08/13 11:58:08;;;;;;;12.30;11.02;;;;;;;20.94;100.00;64166.34;4895562;29;20282;-81
2022/08/13 12:00:36;;;;;;;12.93;11.65;;;;;;;20.82;100.00;64148.63;4895191;29;20219;-80
2022/08/13 12:03:04;;;;;;;12.68;11.27;;;;;;;20.68;100.00;64140.25;4894315;29;20446;-79
2022/08/13 12:05:31;;;;;;;12.68;11.35;;;;;;;20.59;100.00;64125.66;4893684;29;20221;-78